Piedmont, AL (36272)

8:32 AM CDT on June 30, 2015 (GMT -0500)
Choccolocco Community | | Change Station
CLOSE
Current Station
Personal Weather Station
Location: Anniston, AL
Elevation: 865 ft
Nearby Weather Stations

Elev 865 ft 33.69 °N, 85.72 °W | Updated 1 minute ago

Overcast
Overcast
77.5 °F
Feels Like 79 °F
N
6.0
Wind Variable Wind from SSE
Gusts 6.0 mph

Today
High -- | Low -- °F
--% Chance of Precip.
Yesterday
High -- | Low -- °F
Precip. -- in
5:35 AM 7:57 PM
Waxing Gibbous, 97% visible
Pressure 29.97 in
Visibility 7.0 miles
Clouds Overcast 1000 ft
Heat Index 79 °F
Dew Point 72 °F
Humidity 83%
Rainfall 0.00 in
Snow Depth Not available.
UV 1 out of 12
Pollen 3.30 out of 12
Air Quality Not available.
Flu Activity Sporadic
METAR KANB 301253Z AUTO 24007KT 7SM OVC010 25/22 A3000 RMK AO2 LTG DSNT W SLP149 T02500222

More Conditions Fewer Conditions

Pressure 29.97 in
Visibility 7.0 miles
Clouds Overcast 1000 ft
Heat Index 79 °F
Dew Point 72 °F
Humidity 83%
Rainfall 0.00 in
Snow Depth Not available.
UV 1 out of 12
Pollen 3.30 out of 12
Air Quality Not available.
Flu Activity Sporadic
METAR KANB 301253Z AUTO 24007KT 7SM OVC010 25/22 A3000 RMK AO2 LTG DSNT W SLP149 T02500222

More Conditions Fewer Conditions

10-Day Weather Forecast

×

Almanac

Astronomy

Jun. 30, 2015 Rise Set
Actual Time
Civil Twilight
Nautical Twilight
Astronomical Twilight
Moon
Length of Visible Light
Length of Day
Tomorrow will be .
, % of the Moon is Illuminated

Today's Extremes

State Highs State Lows

Community

WunderPhotos

Upload Photos

1,833,994 photos uploaded!

WunderBlogs® & News

Nearby

Air Quality

  Air Quality AQ Index Pollutant
Not available.

Snow Depth

Station Depth Elevation

Earthquake Activity

City Distance Mag. Time & Date
Minimum magnitude displayed is 2.5.

Coastal Water Temperatures

Place Temperature

Stations

Nearby Weather Stations

Station Location Temp. Windchill Dew Point Humidity Wind Precip. Elev Updated Type